Terminal Aerodrome Forecast
Issued by NWS Omaha/Valley, NE

Home | Current Version | Previous Version | Graphics & Text | Print | Product List | Glossary On
Versions: 1 2 3 4 5 6 7 8 9 10 11 12 13 14 15 16 17 18 19 20 21 22 23 24 25 26 27 28 29 30 31 32 33 34 35 36 37 38 39
000
FTUS43 KOAX 290915 AAA
TAFOFK
TAF AMD
KOFK 290915Z 2909/3006 04009KT P6SM OVC008
      TEMPO 2909/2911 5SM -SN BR SCT008 OVC035
     FM291100 02013KT 4SM -SN BR OVC008
      TEMPO 2914/2918 01016KT 1 1/2SM -SN OVC005
     FM292200 36015KT P6SM OVC035=

USA.gov is the U.S. government's official web portal to all federal, state and local government web resources and services.